EDT,Max TemperatureF,Mean TemperatureF,Min TemperatureF,Max Dew PointF,MeanDew PointF,Min DewpointF,Max Humidity, Mean Humidity, Min Humidity, Max Sea Level PressureIn, Mean Sea Level PressureIn, Min Sea Level PressureIn, Max VisibilityMiles, Mean VisibilityMiles, Min VisibilityMiles, Max Wind SpeedMPH, Mean Wind SpeedMPH, Max Gust SpeedMPH,PrecipitationIn, CloudCover, Events, WindDirDegrees
2013-5-1,72,60,48,56,48,44,98,66,37,30.25,30.20,30.17,10,9,0,8,1,,0.00,2,Fog,143
2013-5-2,67,59,51,52,50,47,91,69,50,30.27,30.23,30.19,10,10,10,9,2,,0.00,7,,117
2013-5-3,64,59,54,52,48,44,90,69,49,30.20,30.12,30.06,10,10,10,14,3,20,0.00,8,Rain,111
2013-5-4,57,54,50,50,45,34,97,73,51,30.05,29.98,29.91,10,9,3,9,3,16,0.60,8,Rain,116
2013-5-5,56,52,48,53,50,47,99,96,82,29.92,29.83,29.80,10,7,2,6,1,,1.13,8,Rain,249
2013-5-6,59,50,42,48,43,38,98,79,47,29.94,29.85,29.77,10,8,0,9,2,,0.26,5,Fog-Rain,177
2013-5-7,68,54,40,46,41,37,96,72,32,29.98,29.93,29.87,10,7,0,14,2,21,0.00,5,Fog,307
2013-5-8,67,56,46,54,49,45,97,79,51,30.10,30.02,29.96,10,10,4,10,1,18,0.00,6,Rain,322
2013-5-9,77,62,48,57,49,43,97,68,32,30.17,30.12,30.08,10,8,0,10,2,16,0.00,3,Fog,303
2013-5-10,74,60,45,58,51,44,97,76,42,30.16,30.08,29.99,10,8,0,15,1,20,0.11,4,Fog-Rain,219
2013-5-11,72,64,55,60,56,50,99,87,49,30.03,29.97,29.91,10,7,1,10,1,26,0.39,7,Rain,340
2013-5-12,61,50,38,50,37,23,97,62,29,30.12,30.03,29.97,10,10,5,14,5,22,0.00,0,,331
2013-5-13,62,48,33,37,30,20,95,60,21,30.21,30.16,30.12,10,10,10,14,2,20,0.00,0,,305
2013-5-14,75,54,32,49,39,31,97,67,31,30.28,30.20,30.11,10,10,4,16,1,21,0.10,0,,253
2013-5-15,83,63,43,53,47,42,97,63,24,30.21,30.13,30.04,10,10,5,12,2,21,0.00,0,,339
2013-5-16,78,62,46,55,50,45,97,72,36,30.13,30.08,30.02,10,10,5,5,0,,0.00,0,,18
2013-5-17,78,64,49,58,52,46,97,71,37,30.16,30.12,30.08,10,9,5,8,1,,0.00,2,,167
2013-5-18,69,62,56,63,58,53,99,88,73,30.15,30.12,30.08,10,8,3,8,1,,0.17,8,Rain,137
2013-5-19,72,64,56,65,61,55,100,89,67,30.15,30.10,30.05,10,7,1,5,1,,0.06,5,Rain,119
2013-5-20,82,69,56,64,58,55,99,80,45,30.17,30.11,30.06,10,7,0,9,1,,0.00,4,Fog,217
2013-5-21,83,70,56,65,59,54,99,81,37,30.13,30.07,29.98,10,6,0,9,1,17,0.73,5,Fog-Rain,179
2013-5-22,78,68,57,65,60,57,99,90,57,30.08,30.01,29.92,10,7,0,17,2,59,1.35,5,Rain,108
2013-5-23,77,68,58,63,55,49,99,66,39,30.02,29.98,29.94,10,9,0,14,3,24,0.19,5,Fog-Rain,312
2013-5-24,68,57,45,50,42,30,81,52,24,30.28,30.14,30.01,10,10,10,16,7,25,0.00,3,,304
2013-5-25,75,56,36,45,36,29,96,59,18,30.35,30.28,30.22,10,10,2,9,1,18,0.00,0,,314
2013-5-26,74,58,43,48,43,37,93,69,26,30.34,30.27,30.21,10,10,7,9,1,,0.00,3,Rain,323
2013-5-27,79,61,43,56,49,43,97,69,37,30.31,30.24,30.18,10,10,7,9,1,16,0.00,0,,147
2013-5-28,80,66,51,59,54,51,97,71,37,30.27,30.22,30.18,10,9,1,12,1,17,0.00,1,,150
2013-5-29,81,66,52,60,55,51,97,71,36,30.29,30.24,30.19,10,9,4,9,1,,0.00,1,,168
2013-5-30,79,66,52,59,56,52,98,74,44,30.33,30.26,30.21,10,9,4,10,1,18,0.00,3,,201
2013-5-31,79,68,56,59,56,51,97,66,37,30.27,30.21,30.16,10,10,7,9,2,17,0.00,2,,164